| time (UTC) | temp F | wind direction | speed MPH | gust MPH | rain 1hr in | rain 24hr in | rain mn in | humidity % | barometer mb |
| 20260906002301 | 54 | 334 | 7.0 | 11.0 | 0.00 | 0.23 | 0.02 | 94 | 994.8 |
| 20260906001258 | 54 | 331 | 7.0 | 14.0 | 0.00 | 0.23 | 0.02 | 94 | 994.7 |
| 20260906000257 | 54 | 336 | 8.0 | 12.0 | 0.01 | 0.23 | 0.02 | 94 | 994.6 |
| 20260905235254 | 54 | 336 | 8.0 | 12.0 | 0.01 | 0.23 | 0.02 | 94 | 994.6 |
| 20260905234252 | 54 | 337 | 8.0 | 11.0 | 0.02 | 0.23 | 0.02 | 94 | 994.5 |
| 20260905233250 | 54 | 338 | 7.0 | 12.0 | 0.02 | 0.23 | 0.02 | 94 | 994.5 |
| 20260905232248 | 54 | 338 | 7.0 | 11.0 | 0.02 | 0.23 | 0.02 | 94 | 994.5 |
| 20260905231248 | 54 | 336 | 7.0 | 12.0 | 0.02 | 0.23 | 0.02 | 94 | 994.5 |
| 20260905230304 | 54 | 336 | 7.0 | 12.0 | 0.01 | 0.23 | 0.01 | 94 | 994.6 |
| 20260905225241 | 54 | 330 | 7.0 | 11.0 | 0.01 | 0.22 | 0.01 | 94 | 994.5 |
| 20260905224240 | 54 | 337 | 8.0 | 12.0 | 0.00 | 0.22 | 0.00 | 94 | 994.6 |
| 20260905190216 | 54 | 341 | 7.0 | 11.0 | 0.00 | 0.21 | 0.21 | 92 | 995.0 |
| 20260905185154 | 54 | 337 | 7.0 | 12.0 | 0.01 | 0.21 | 0.21 | 91 | 995.0 |
| 20260905184151 | 54 | 309 | 5.0 | 10.0 | 0.02 | 0.21 | 0.21 | 91 | 994.9 |
| 20260905183150 | 54 | 225 | 9.0 | 16.0 | 0.04 | 0.21 | 0.21 | 91 | 994.9 |
| 20260905182149 | 55 | 223 | 11.0 | 23.0 | 0.05 | 0.21 | 0.21 | 91 | 994.9 |
| 20260905181146 | 55 | 218 | 8.0 | 16.0 | 0.06 | 0.21 | 0.21 | 90 | 995.0 |
| 20260905180144 | 55 | 212 | 10.0 | 22.0 | 0.07 | 0.21 | 0.21 | 90 | 995.2 |
| 20260905175142 | 55 | 210 | 7.0 | 29.0 | 0.09 | 0.20 | 0.20 | 89 | 995.3 |
| 20260905174140 | 55 | 210 | 7.0 | 14.0 | 0.15 | 0.19 | 0.19 | 89 | 995.5 |
| 20260905173138 | 56 | 214 | 7.0 | 12.0 | 0.15 | 0.17 | 0.17 | 87 | 995.6 |
| 20260905172136 | 56 | 222 | 10.0 | 19.0 | 0.14 | 0.16 | 0.16 | 85 | 995.6 |
| 20260905171134 | 57 | 228 | 11.0 | 16.0 | 0.13 | 0.15 | 0.15 | 83 | 995.7 |
| 20260905170132 | 59 | 232 | 12.0 | 20.0 | 0.11 | 0.14 | 0.14 | 79 | 995.4 |
| 20260905165150 | 62 | 267 | 11.0 | 29.0 | 0.08 | 0.11 | 0.11 | 73 | 995.3 |
| 20260905164128 | 63 | 296 | 4.0 | 12.0 | 0.01 | 0.04 | 0.04 | 67 | 995.4 |
| 20260905163126 | 64 | 135 | 1.0 | 2.0 | 0.00 | 0.03 | 0.03 | 67 | 993.9 |
| 20260905162124 | 65 | 225 | 1.0 | 5.0 | 0.00 | 0.03 | 0.03 | 65 | 993.8 |
| 20260905161123 | 66 | 270 | 1.0 | 2.0 | 0.00 | 0.03 | 0.03 | 61 | 993.7 |
| 20260905160120 | 66 | 270 | 1.0 | 5.0 | 0.00 | 0.03 | 0.03 | 60 | 993.3 |
| 20260905155158 | 66 | 270 | 1.0 | 7.0 | 0.00 | 0.03 | 0.03 | 59 | 993.3 |
| 20260905154116 | 67 | 270 | 1.0 | 5.0 | 0.00 | 0.03 | 0.03 | 58 | 993.2 |
| 20260905153114 | 66 | 270 | 1.0 | 9.0 | 0.00 | 0.03 | 0.03 | 59 | 993.1 |
| 20260905152112 | 66 | 270 | 1.0 | 6.0 | 0.00 | 0.03 | 0.03 | 58 | 993.2 |
| 20260905151110 | 67 | 270 | 1.0 | 7.0 | 0.00 | 0.03 | 0.03 | 58 | 993.1 |
| 20260905150109 | 67 | 290 | 2.0 | 11.0 | 0.00 | 0.03 | 0.03 | 56 | 993.1 |
| 20260905145110 | 67 | 255 | 1.0 | 4.0 | 0.00 | 0.03 | 0.03 | 56 | 993.1 |
| 20260905144104 | 67 | 270 | 1.0 | 7.0 | 0.00 | 0.03 | 0.03 | 56 | 993.0 |
| 20260905143102 | 67 | 270 | 1.0 | 4.0 | 0.00 | 0.03 | 0.03 | 57 | 992.9 |
| 20260905142100 | 67 | 304 | 3.0 | 7.0 | 0.00 | 0.03 | 0.03 | 57 | 992.8 |
| 20260905141118 | 68 | 270 | 1.0 | 10.0 | 0.00 | 0.03 | 0.03 | 56 | 992.8 |
| 20260905140056 | 68 | 270 | 1.0 | 8.0 | 0.00 | 0.03 | 0.03 | 56 | 992.9 |
| 20260905135055 | 67 | 298 | 2.0 | 11.0 | 0.00 | 0.03 | 0.03 | 58 | 992.7 |
| 20260905134053 | 67 | 298 | 2.0 | 11.0 | 0.00 | 0.03 | 0.03 | 58 | 992.7 |
| 20260905133050 | 67 | 303 | 1.0 | 7.0 | 0.00 | 0.03 | 0.03 | 56 | 992.6 |
| 20260905132048 | 67 | 294 | 4.0 | 14.0 | 0.00 | 0.03 | 0.03 | 56 | 992.6 |
| 20260905131045 | 67 | 293 | 3.0 | 14.0 | 0.00 | 0.03 | 0.03 | 61 | 992.5 |
| 20260905130054 | 67 | 296 | 4.0 | 14.0 | 0.00 | 0.03 | 0.03 | 61 | 992.6 |
| 20260905125042 | 67 | 270 | 1.0 | 7.0 | 0.00 | 0.03 | 0.03 | 62 | 992.5 |
| 20260905124041 | 67 | 293 | 2.0 | 9.0 | 0.00 | 0.03 | 0.03 | 63 | 992.5 |
| 20260905121034 | 66 | 289 | 3.0 | 12.0 | 0.00 | 0.03 | 0.03 | 63 | 992.4 |
| 20260905120053 | 66 | 270 | 1.0 | 7.0 | 0.00 | 0.03 | 0.03 | 62 | 992.4 |
| 20260905115030 | 66 | 297 | 4.0 | 11.0 | 0.00 | 0.03 | 0.03 | 61 | 992.2 |
| 20260905114028 | 66 | 293 | 3.0 | 19.0 | 0.00 | 0.03 | 0.03 | 61 | 992.2 |
| 20260905113026 | 65 | 291 | 3.0 | 12.0 | 0.00 | 0.03 | 0.03 | 62 | 992.1 |
| 20260905112024 | 65 | 296 | 3.0 | 9.0 | 0.00 | 0.03 | 0.03 | 65 | 992.0 |
| 20260905111034 | 65 | 303 | 4.0 | 16.0 | 0.00 | 0.03 | 0.03 | 67 | 992.1 |
| 20260905110040 | 65 | 294 | 3.0 | 12.0 | 0.00 | 0.03 | 0.03 | 68 | 991.6 |
| 20260905105038 | 65 | 295 | 2.0 | 8.0 | 0.00 | 0.03 | 0.03 | 69 | 991.9 |
| 20260905104016 | 65 | 300 | 2.0 | 7.0 | 0.00 | 0.03 | 0.03 | 70 | 991.8 |
| 20260905103024 | 64 | 288 | 2.0 | 7.0 | 0.00 | 0.03 | 0.03 | 70 | 991.9 |
| 20260905102012 | 64 | 288 | 2.0 | 7.0 | 0.00 | 0.03 | 0.03 | 70 | 992.0 |
| 20260905101041 | 64 | 293 | 2.0 | 12.0 | 0.00 | 0.03 | 0.03 | 71 | 991.9 |
| 20260905100019 | 64 | 302 | 3.0 | 12.0 | 0.00 | 0.03 | 0.03 | 72 | 992.0 |
| 20260905094516 | 64 | 295 | 3.0 | 11.0 | 0.00 | 0.03 | 0.03 | 73 | 991.9 |
| 20260905093504 | 64 | 270 | 2.0 | 17.0 | 0.00 | 0.03 | 0.03 | 74 | 991.8 |
| 20260905092000 | 63 | 270 | 1.0 | 7.0 | 0.00 | 0.03 | 0.03 | 75 | 991.6 |
| 20260905090957 | 63 | 270 | 1.0 | 12.0 | 0.00 | 0.03 | 0.03 | 75 | 991.7 |
| 20260905085956 | 63 | 270 | 1.0 | 5.0 | 0.00 | 0.03 | 0.03 | 75 | 991.6 |
| 20260905085014 | 63 | 296 | 3.0 | 12.0 | 0.00 | 0.03 | 0.03 | 76 | 991.5 |
| 20260905083952 | 63 | 270 | 1.0 | 11.0 | 0.00 | 0.03 | 0.03 | 76 | 991.3 |
| 20260905082951 | 62 | 293 | 3.0 | 10.0 | 0.00 | 0.03 | 0.03 | 76 | 991.4 |
| 20260905082019 | 62 | 286 | 1.0 | 6.0 | 0.00 | 0.03 | 0.03 | 76 | 991.3 |
| 20260905080946 | 62 | 288 | 1.0 | 7.0 | 0.00 | 0.03 | 0.03 | 77 | 991.2 |
| 20260905075944 | 62 | 299 | 2.0 | 8.0 | 0.00 | 0.03 | 0.03 | 78 | 991.0 |
| 20260905074943 | 62 | 270 | 1.0 | 4.0 | 0.00 | 0.03 | 0.03 | 79 | 990.8 |
| 20260905073940 | 62 | 270 | 1.0 | 6.0 | 0.00 | 0.04 | 0.03 | 79 | 990.6 |
| 20260905072938 | 61 | 270 | 1.0 | 12.0 | 0.00 | 0.04 | 0.03 | 79 | 990.5 |
| 20260905071956 | 61 | 304 | 3.0 | 11.0 | 0.00 | 0.05 | 0.03 | 80 | 990.2 |
| 20260905070955 | 61 | 299 | 1.0 | 11.0 | 0.00 | 0.05 | 0.03 | 80 | 990.1 |
| 20260905065952 | 61 | 287 | 1.0 | 6.0 | 0.00 | 0.05 | 0.03 | 80 | 990.0 |
| 20260905064930 | 61 | 294 | 2.0 | 11.0 | 0.00 | 0.05 | 0.03 | 80 | 989.8 |
| 20260905063928 | 61 | 291 | 3.0 | 9.0 | 0.00 | 0.05 | 0.03 | 80 | 989.7 |
| 20260905062926 | 61 | 291 | 3.0 | 14.0 | 0.00 | 0.05 | 0.03 | 82 | 989.4 |
| 20260905061924 | 61 | 293 | 2.0 | 11.0 | 0.00 | 0.05 | 0.03 | 82 | 989.3 |
| 20260905060942 | 60 | 295 | 1.0 | 12.0 | 0.00 | 0.05 | 0.03 | 83 | 989.1 |
| 20260905055920 | 60 | 239 | 1.0 | 3.0 | 0.00 | 0.05 | 0.03 | 83 | 989.0 |
| 20260905054918 | 60 | 270 | 1.0 | 14.0 | 0.00 | 0.05 | 0.03 | 84 | 988.9 |
| 20260905053916 | 60 | 239 | 1.0 | 2.0 | 0.00 | 0.05 | 0.03 | 84 | 988.6 |
| 20260905052913 | 61 | 237 | 1.0 | 3.0 | 0.00 | 0.05 | 0.03 | 85 | 988.4 |
| 20260905051912 | 61 | 251 | 1.0 | 4.0 | 0.00 | 0.05 | 0.03 | 85 | 988.2 |
| 20260905050930 | 61 | 246 | 1.0 | 7.0 | 0.00 | 0.05 | 0.03 | 86 | 988.0 |
| 20260905045928 | 61 | 236 | 1.0 | 4.0 | 0.00 | 0.05 | 0.03 | 87 | 987.9 |
| 20260905044926 | 61 | 270 | 1.0 | 6.0 | 0.00 | 0.05 | 0.03 | 87 | 987.9 |
| 20260905043944 | 61 | 246 | 1.0 | 4.0 | 0.00 | 0.05 | 0.03 | 89 | 987.6 |
| 20260905042902 | 61 | 229 | 1.0 | 3.0 | 0.00 | 0.05 | 0.03 | 89 | 987.4 |
| 20260905041902 | 61 | 251 | 1.0 | 9.0 | 0.00 | 0.05 | 0.02 | 90 | 987.0 |
| 20260905040858 | 61 | 270 | 1.0 | 3.0 | 0.00 | 0.05 | 0.02 | 90 | 986.9 |
| 20260905035855 | 62 | 246 | 1.0 | 5.0 | 0.00 | 0.05 | 0.02 | 91 | 986.8 |
| 20260905034853 | 62 | 270 | 1.0 | 7.0 | 0.01 | 0.05 | 0.02 | 91 | 986.7 |
| 20260905033911 | 62 | 270 | 1.0 | 12.0 | 0.01 | 0.05 | 0.02 | 91 | 986.8 |
| 20260905032849 | 62 | 203 | 1.0 | 2.0 | 0.02 | 0.05 | 0.02 | 91 | 986.3 |
| 20260905031919 | 62 | 191 | 1.0 | 2.0 | 0.02 | 0.05 | 0.02 | 90 | 986.2 |
| 20260905030845 | 62 | 168 | 1.0 | 2.0 | 0.02 | 0.05 | 0.02 | 90 | 986.0 |
| 20260905025904 | 62 | 180 | 1.0 | 2.0 | 0.02 | 0.04 | 0.02 | 89 | 986.1 |
| 20260905024842 | 63 | 201 | 1.0 | 3.0 | 0.01 | 0.04 | 0.01 | 88 | 986.3 |
| 20260905023840 | 63 | 175 | 1.0 | 2.0 | 0.01 | 0.04 | 0.01 | 87 | 986.3 |
| 20260905022838 | 64 | 184 | 1.0 | 2.0 | 0.00 | 0.03 | 0.00 | 86 | 986.4 |
| 20260905021837 | 64 | 171 | 1.0 | 2.0 | 0.00 | 0.03 | 0.00 | 86 | 986.4 |
| 20260905020834 | 64 | 180 | 1.0 | 2.0 | 0.00 | 0.03 | 0.00 | 85 | 986.2 |
| 20260905015832 | 64 | 184 | 1.0 | 2.0 | 0.00 | 0.03 | 0.00 | 85 | 986.0 |
| 20260905014829 | 64 | 171 | 1.0 | 2.0 | 0.00 | 0.03 | 0.00 | 84 | 986.2 |
| 20260905013828 | 64 | 158 | 1.0 | 2.0 | 0.00 | 0.03 | 0.00 | 83 | 986.0 |
| 20260905012826 | 64 | 173 | 1.0 | 3.0 | 0.00 | 0.03 | 0.00 | 82 | 985.9 |
| 20260905011824 | 64 | 218 | 1.0 | 3.0 | 0.00 | 0.03 | 0.00 | 81 | 986.0 |
| 20260905010822 | 65 | 206 | 1.0 | 2.0 | 0.00 | 0.03 | 0.00 | 81 | 986.0 |
| 20260905005821 | 65 | 270 | 1.0 | 3.0 | 0.00 | 0.03 | 0.00 | 81 | 985.9 |
| 20260905004818 | 65 | 270 | 1.0 | 4.0 | 0.00 | 0.03 | 0.00 | 82 | 985.8 |
| 20260905003816 | 65 | 270 | 1.0 | 4.0 | 0.00 | 0.03 | 0.00 | 81 | 985.8 |
| 20260905002814 | 65 | 235 | 1.0 | 5.0 | 0.00 | 0.03 | 0.00 | 81 | 985.5 |